createdAt,value
2019-02-06T00:00:13.651Z,22.43
2019-02-06T00:02:41.657Z,22.53
2019-02-06T00:05:14.080Z,24.77
2019-02-06T00:07:39.204Z,26.23
2019-02-06T00:10:07.194Z,27.00
2019-02-06T00:12:34.581Z,25.20
2019-02-06T00:15:03.104Z,26.83
2019-02-06T00:17:30.338Z,29.80
2019-02-06T00:19:57.779Z,30.90
2019-02-06T00:22:24.908Z,24.53
2019-02-06T00:24:52.668Z,28.63
2019-02-06T00:27:20.314Z,24.63
2019-02-06T00:29:48.087Z,26.10
2019-02-06T00:32:15.545Z,19.70
2019-02-06T00:34:42.916Z,23.20
2019-02-06T00:37:10.890Z,25.00
2019-02-06T00:39:38.670Z,22.27
2019-02-06T00:42:06.526Z,24.70
2019-02-06T00:44:34.872Z,24.73
2019-02-06T00:47:02.239Z,24.73
2019-02-06T00:49:29.744Z,26.83
2019-02-06T00:51:57.546Z,28.93
2019-02-06T00:54:24.975Z,25.40
2019-02-06T00:56:52.485Z,25.27
2019-02-06T00:59:19.990Z,27.47
2019-02-06T01:01:48.039Z,28.63
2019-02-06T01:04:15.930Z,23.40
2019-02-06T01:06:44.143Z,24.37
2019-02-06T01:09:12.252Z,26.57
2019-02-06T01:11:39.878Z,22.47
2019-02-06T01:14:07.756Z,28.27
2019-02-06T01:16:35.410Z,23.37
2019-02-06T01:19:03.528Z,26.57
2019-02-06T01:21:30.789Z,25.03
2019-02-06T01:23:58.456Z,22.27
2019-02-06T01:26:25.985Z,27.30
2019-02-06T01:28:53.389Z,24.23
2019-02-06T01:31:22.951Z,24.20
2019-02-06T01:33:50.325Z,20.87
2019-02-06T01:36:18.195Z,23.40
2019-02-06T01:38:45.719Z,27.00
2019-02-06T01:41:13.526Z,26.27
2019-02-06T01:43:41.348Z,24.70
2019-02-06T01:46:09.220Z,26.10
2019-02-06T01:48:36.327Z,19.87
2019-02-06T01:51:03.903Z,29.87
2019-02-06T01:53:31.958Z,25.40
2019-02-06T01:56:00.284Z,26.03
2019-02-06T01:58:27.642Z,23.67
2019-02-06T02:00:55.698Z,24.87
2019-02-06T02:03:23.158Z,29.20
2019-02-06T02:06:01.978Z,26.30
2019-02-06T02:08:21.305Z,27.37
2019-02-06T02:10:49.421Z,30.07
2019-02-06T02:13:18.095Z,23.37
2019-02-06T02:15:45.880Z,27.33
2019-02-06T02:18:13.651Z,22.70
2019-02-06T02:20:41.111Z,25.67
2019-02-06T02:23:09.041Z,26.53
2019-02-06T02:25:36.402Z,24.50
2019-02-06T02:28:04.484Z,22.97
2019-02-06T02:30:38.893Z,24.10
2019-02-06T02:33:06.330Z,21.80
2019-02-06T02:35:33.834Z,25.80
2019-02-06T02:38:01.237Z,23.57
2019-02-06T02:40:28.598Z,21.63
2019-02-06T02:42:56.511Z,23.77
2019-02-06T02:45:24.828Z,29.60
2019-02-06T02:47:52.688Z,23.77
2019-02-06T02:50:20.688Z,30.67
2019-02-06T02:52:48.287Z,24.60
2019-02-06T02:55:16.215Z,21.57
2019-02-06T02:57:44.019Z,25.00
2019-02-06T03:00:15.683Z,25.40
2019-02-06T03:03:03.229Z,26.83
2019-02-06T03:05:33.222Z,28.23
2019-02-06T03:08:01.010Z,27.30
2019-02-06T03:10:28.565Z,27.03
2019-02-06T03:12:55.992Z,24.30
2019-02-06T03:15:24.505Z,24.93
2019-02-06T03:17:52.267Z,21.87
2019-02-06T03:20:20.356Z,21.17
2019-02-06T03:22:48.567Z,26.27
2019-02-06T03:25:15.935Z,29.43
2019-02-06T03:27:43.833Z,25.03
2019-02-06T03:30:13.510Z,23.03
2019-02-06T03:32:41.423Z,24.83
2019-02-06T03:35:09.098Z,28.50
2019-02-06T03:37:36.850Z,27.27
2019-02-06T03:40:06.816Z,28.53
2019-02-06T03:42:34.462Z,27.43
2019-02-06T03:45:01.821Z,28.70
2019-02-06T03:47:29.643Z,28.47
2019-02-06T03:49:57.960Z,31.37
2019-02-06T03:52:25.341Z,27.50
2019-02-06T03:54:52.895Z,27.97
2019-02-06T03:57:21.101Z,24.97
2019-02-06T03:59:48.879Z,24.90
2019-02-06T04:02:16.268Z,27.40
2019-02-06T04:04:43.548Z,27.43
2019-02-06T04:07:14.815Z,25.13
2019-02-06T04:09:43.217Z,26.10
2019-02-06T04:12:10.675Z,26.77
2019-02-06T04:14:38.800Z,25.97
2019-02-06T04:17:06.954Z,28.10
2019-02-06T04:19:34.854Z,26.93
2019-02-06T04:22:02.622Z,25.83
2019-02-06T04:24:29.848Z,28.00
2019-02-06T04:26:57.474Z,32.77
2019-02-06T04:29:25.295Z,27.00
2019-02-06T04:31:52.792Z,29.83
2019-02-06T04:34:20.407Z,28.93
2019-02-06T04:36:47.850Z,30.77
2019-02-06T04:39:15.125Z,29.73
2019-02-06T04:41:42.823Z,28.67
2019-02-06T04:44:10.120Z,27.27
2019-02-06T04:46:37.748Z,26.67
2019-02-06T04:49:05.941Z,29.83
2019-02-06T04:51:33.858Z,29.00
2019-02-06T04:54:01.853Z,26.43
2019-02-06T04:56:29.356Z,29.33
2019-02-06T04:58:57.627Z,28.67
2019-02-06T05:01:25.565Z,28.13
2019-02-06T05:03:53.280Z,28.50
2019-02-06T05:06:20.696Z,25.57
2019-02-06T05:08:48.342Z,28.60
2019-02-06T05:11:16.053Z,28.03
2019-02-06T05:13:44.022Z,28.73
2019-02-06T05:16:11.653Z,27.73
2019-02-06T05:18:39.886Z,28.17
2019-02-06T05:21:07.278Z,23.57
2019-02-06T05:23:34.725Z,29.10
2019-02-06T05:26:02.319Z,30.83
2019-02-06T05:28:30.369Z,27.57
2019-02-06T05:30:58.058Z,26.03
2019-02-06T05:33:25.370Z,27.90
2019-02-06T05:35:53.132Z,22.77
2019-02-06T05:38:20.833Z,25.73
2019-02-06T05:40:48.425Z,23.90
2019-02-06T05:43:17.030Z,29.03
2019-02-06T05:45:44.480Z,29.83
2019-02-06T05:48:12.078Z,32.43
2019-02-06T05:50:39.771Z,30.40
2019-02-06T05:53:10.951Z,25.73
2019-02-06T05:55:39.588Z,26.00
2019-02-06T05:58:08.233Z,20.40
2019-02-06T06:00:43.023Z,26.37
2019-02-06T06:03:10.806Z,24.70
2019-02-06T06:05:38.513Z,25.37
2019-02-06T06:08:06.932Z,24.43
2019-02-06T06:10:34.320Z,34.30
2019-02-06T06:13:02.058Z,26.83
2019-02-06T06:15:29.343Z,28.87
2019-02-06T06:17:56.946Z,33.47
2019-02-06T06:20:25.169Z,32.30
2019-02-06T06:22:53.446Z,34.30
2019-02-06T06:25:21.979Z,15.50
2019-02-06T06:27:49.262Z,26.10
2019-02-06T06:30:18.090Z,28.13
2019-02-06T06:32:46.229Z,24.27
2019-02-06T06:35:18.855Z,25.67
2019-02-06T06:37:57.693Z,23.20
2019-02-06T06:40:19.196Z,25.00
2019-02-06T06:42:47.458Z,30.80
2019-02-06T06:45:18.333Z,26.37
2019-02-06T06:47:46.183Z,21.83
2019-02-06T06:50:16.904Z,33.67
2019-02-06T06:52:44.391Z,27.30
2019-02-06T06:55:13.182Z,30.23
2019-02-06T06:57:40.864Z,26.00
2019-02-06T07:00:17.247Z,27.03
2019-02-06T07:02:45.294Z,26.33
2019-02-06T07:05:13.204Z,26.10
2019-02-06T07:07:41.567Z,29.00
2019-02-06T07:10:12.328Z,30.10
2019-02-06T07:12:39.809Z,30.10
2019-02-06T07:15:11.919Z,29.33
2019-02-06T07:17:39.490Z,29.97
2019-02-06T07:20:10.192Z,31.70
2019-02-06T07:22:37.896Z,27.13
2019-02-06T07:25:06.649Z,32.00
2019-02-06T07:27:34.846Z,31.73
2019-02-06T07:30:05.414Z,31.70
2019-02-06T07:32:36.157Z,32.07
2019-02-06T07:35:03.022Z,31.83
2019-02-06T07:37:30.901Z,32.10
2019-02-06T07:39:58.611Z,38.07
2019-02-06T07:42:26.054Z,31.80
2019-02-06T07:44:54.162Z,32.77
2019-02-06T07:47:21.540Z,36.07
2019-02-06T07:49:48.813Z,35.70
2019-02-06T07:52:16.925Z,36.07
2019-02-06T07:54:44.574Z,37.47
2019-02-06T07:57:12.106Z,33.50
2019-02-06T07:59:39.487Z,35.23
2019-02-06T08:02:08.006Z,35.60
2019-02-06T08:04:35.800Z,35.53
2019-02-06T08:07:03.637Z,38.13
2019-02-06T08:09:31.563Z,35.73
2019-02-06T08:11:59.363Z,41.17
2019-02-06T08:14:27.306Z,33.83
2019-02-06T08:16:55.275Z,35.23
2019-02-06T08:19:23.333Z,38.90
2019-02-06T08:21:50.712Z,39.13
2019-02-06T08:24:18.738Z,37.63
2019-02-06T08:26:46.890Z,39.40
2019-02-06T08:29:14.731Z,30.97
2019-02-06T08:31:42.504Z,35.23
2019-02-06T08:34:10.098Z,33.43
2019-02-06T08:36:40.026Z,34.57
2019-02-06T08:39:08.865Z,36.10
2019-02-06T08:41:36.623Z,32.40
2019-02-06T08:44:04.213Z,36.67
2019-02-06T08:46:31.843Z,38.60
2019-02-06T08:48:59.404Z,37.57
2019-02-06T08:51:26.911Z,41.07
2019-02-06T08:53:54.589Z,31.00
2019-02-06T08:56:21.848Z,39.27
2019-02-06T08:58:49.395Z,36.13
2019-02-06T09:01:16.826Z,34.47
2019-02-06T09:03:44.170Z,41.80
2019-02-06T09:06:11.818Z,35.10
2019-02-06T09:08:39.162Z,31.73
2019-02-06T09:11:07.010Z,38.47
2019-02-06T09:13:34.789Z,37.80
2019-02-06T09:16:02.745Z,33.60
2019-02-06T09:18:30.137Z,34.87
2019-02-06T09:20:58.121Z,34.03
2019-02-06T09:23:25.357Z,33.37
2019-02-06T09:25:53.223Z,33.70
2019-02-06T09:28:20.625Z,32.73
2019-02-06T09:30:48.208Z,37.40
2019-02-06T09:33:16.090Z,37.47
2019-02-06T09:35:43.619Z,37.33
2019-02-06T09:38:11.757Z,35.37
2019-02-06T09:40:39.294Z,50.63
2019-02-06T09:43:07.296Z,49.37
2019-02-06T09:45:35.375Z,35.07
2019-02-06T09:48:04.232Z,34.93
2019-02-06T09:50:34.787Z,33.30
2019-02-06T09:53:02.410Z,30.97
2019-02-06T09:55:29.956Z,30.77
2019-02-06T09:57:57.843Z,34.87
2019-02-06T10:00:28.862Z,36.00
2019-02-06T10:02:56.493Z,30.23
2019-02-06T10:05:24.389Z,30.83
2019-02-06T10:07:51.870Z,31.50
2019-02-06T10:10:21.278Z,34.53
2019-02-06T10:12:49.171Z,33.60
2019-02-06T10:15:31.561Z,33.93
2019-02-06T10:18:03.961Z,30.53
2019-02-06T10:20:52.423Z,29.50
2019-02-06T10:23:19.825Z,28.37
2019-02-06T10:25:47.169Z,30.37
2019-02-06T10:28:15.109Z,30.10
2019-02-06T10:30:50.955Z,29.87
2019-02-06T10:33:19.345Z,32.47
2019-02-06T10:35:47.205Z,25.80
2019-02-06T10:38:15.836Z,24.80
2019-02-06T10:40:44.282Z,28.23
2019-02-06T10:43:12.661Z,24.70
2019-02-06T10:45:40.698Z,24.33
2019-02-06T10:48:08.152Z,26.83
2019-02-06T10:50:45.584Z,23.23
2019-02-06T10:53:13.067Z,26.63
2019-02-06T10:55:40.800Z,26.93
2019-02-06T10:58:08.937Z,26.00
2019-02-06T11:00:45.326Z,32.83
2019-02-06T11:03:13.037Z,29.77
2019-02-06T11:05:41.180Z,28.53
2019-02-06T11:08:08.829Z,25.23
2019-02-06T11:10:36.594Z,25.10
2019-02-06T11:13:05.191Z,25.77
2019-02-06T11:15:33.744Z,26.83
2019-02-06T11:18:01.836Z,25.50
2019-02-06T11:20:30.610Z,25.43
2019-02-06T11:22:58.561Z,27.90
2019-02-06T11:25:25.900Z,26.47
2019-02-06T11:27:53.263Z,25.47
2019-02-06T11:30:23.935Z,26.13
2019-02-06T11:32:52.110Z,25.20
2019-02-06T11:35:19.508Z,23.73
2019-02-06T11:37:47.234Z,27.07
2019-02-06T11:40:19.344Z,23.60
2019-02-06T11:42:47.301Z,25.57
2019-02-06T11:45:18.521Z,27.77
2019-02-06T11:47:46.459Z,24.93
2019-02-06T11:50:16.963Z,22.67
2019-02-06T11:52:45.384Z,26.87
2019-02-06T11:55:16.559Z,23.57
2019-02-06T11:57:44.965Z,24.87
2019-02-06T12:00:18.523Z,24.37
2019-02-06T12:02:46.159Z,28.97
2019-02-06T12:05:14.219Z,24.43
2019-02-06T12:07:41.600Z,27.03
2019-02-06T12:10:13.513Z,26.87
2019-02-06T12:12:42.071Z,26.43
2019-02-06T12:15:14.789Z,28.57
2019-02-06T12:17:43.672Z,25.90
2019-02-06T12:20:15.657Z,27.70
2019-02-06T12:22:43.500Z,26.30
2019-02-06T12:25:11.856Z,24.43
2019-02-06T12:27:39.836Z,26.67
2019-02-06T12:30:23.676Z,27.40
2019-02-06T12:32:52.342Z,24.87
2019-02-06T12:35:20.878Z,28.63
2019-02-06T12:37:48.933Z,28.07
2019-02-06T12:40:21.772Z,35.27
2019-02-06T12:42:47.254Z,28.00
2019-02-06T12:45:16.571Z,29.50
2019-02-06T12:47:44.098Z,30.77
2019-02-06T12:50:13.326Z,28.50
2019-02-06T12:52:41.013Z,28.43
2019-02-06T12:55:19.560Z,30.03
2019-02-06T12:57:46.265Z,26.83
2019-02-06T13:00:27.478Z,26.70
2019-02-06T13:02:59.674Z,25.73
2019-02-06T13:05:25.757Z,25.77
2019-02-06T13:07:54.084Z,30.07
2019-02-06T13:10:32.947Z,29.47
2019-02-06T13:12:51.770Z,31.93
2019-02-06T13:15:19.328Z,28.93
2019-02-06T13:17:48.057Z,29.30
2019-02-06T13:20:21.109Z,29.43
2019-02-06T13:22:49.334Z,32.23
2019-02-06T13:25:17.050Z,31.43
2019-02-06T13:27:44.591Z,28.30
2019-02-06T13:30:27.906Z,30.80
2019-02-06T13:32:56.054Z,32.83
2019-02-06T13:35:23.615Z,30.63
2019-02-06T13:37:51.561Z,31.80
2019-02-06T13:40:24.660Z,31.53
2019-02-06T13:42:52.246Z,31.20
2019-02-06T13:45:30.121Z,28.83
2019-02-06T13:47:59.028Z,27.63
2019-02-06T13:50:28.306Z,33.70
2019-02-06T13:52:56.090Z,31.13
2019-02-06T13:55:24.019Z,33.40
2019-02-06T13:57:51.628Z,29.00
2019-02-06T14:00:25.650Z,26.20
2019-02-06T14:02:52.997Z,25.00
2019-02-06T14:05:24.267Z,29.63
2019-02-06T14:07:54.483Z,30.03
2019-02-06T14:10:23.224Z,28.33
2019-02-06T14:12:51.325Z,26.90
2019-02-06T14:15:21.018Z,25.80
2019-02-06T14:17:48.437Z,32.70
2019-02-06T14:20:18.669Z,27.27
2019-02-06T14:22:51.202Z,23.03
2019-02-06T14:25:58.527Z,27.47
2019-02-06T14:29:07.722Z,26.77
2019-02-06T14:32:29.678Z,26.63
2019-02-06T14:35:46.780Z,27.17
2019-02-06T14:39:04.644Z,23.17
2019-02-06T14:42:23.732Z,23.60
2019-02-06T14:45:50.757Z,21.67
2019-02-06T14:49:01.639Z,21.23
2019-02-06T14:52:54.367Z,24.57
2019-02-06T14:56:14.053Z,23.77
2019-02-06T14:59:19.525Z,24.20
2019-02-06T15:03:02.929Z,23.53
2019-02-06T15:06:10.086Z,26.80
2019-02-06T15:09:39.436Z,24.37
2019-02-06T15:13:14.634Z,23.43
2019-02-06T15:16:50.051Z,19.43
2019-02-06T15:20:28.239Z,24.87
2019-02-06T15:23:40.126Z,23.87
2019-02-06T15:27:16.886Z,25.23
2019-02-06T15:30:23.977Z,21.67
2019-02-06T15:33:38.381Z,23.80
2019-02-06T15:37:18.423Z,24.17
2019-02-06T15:40:56.672Z,24.93
2019-02-06T15:44:24.618Z,23.10
2019-02-06T15:47:26.159Z,23.40
2019-02-06T15:50:33.592Z,20.97
2019-02-06T15:53:44.807Z,26.80
2019-02-06T15:56:53.829Z,26.23
2019-02-06T16:00:04.036Z,31.40
2019-02-06T16:03:29.730Z,28.43
2019-02-06T16:06:41.315Z,27.37
2019-02-06T16:10:04.339Z,26.53
2019-02-06T16:13:26.554Z,27.33
2019-02-06T16:16:54.591Z,24.63
2019-02-06T16:20:16.966Z,26.80
2019-02-06T16:23:45.635Z,23.17
2019-02-06T16:27:10.946Z,28.13
2019-02-06T16:30:18.779Z,30.33
2019-02-06T16:34:24.050Z,31.03
2019-02-06T16:37:38.803Z,29.17
2019-02-06T16:41:16.940Z,29.60
2019-02-06T16:44:10.167Z,27.83
2019-02-06T16:47:45.970Z,26.90
2019-02-06T16:51:07.167Z,33.70
2019-02-06T16:54:08.945Z,31.70
2019-02-06T16:56:59.032Z,30.00
2019-02-06T17:00:21.035Z,30.07
2019-02-06T17:03:38.427Z,30.23
2019-02-06T17:06:26.159Z,28.33
2019-02-06T17:10:04.936Z,30.20
2019-02-06T17:13:14.027Z,32.83
2019-02-06T17:16:24.000Z,27.00
2019-02-06T17:20:17.194Z,28.70
2019-02-06T17:23:39.714Z,28.17
2019-02-06T17:26:56.466Z,32.53
2019-02-06T17:30:16.760Z,19.87
2019-02-06T17:33:35.380Z,22.93
2019-02-06T17:36:50.138Z,19.93
2019-02-06T17:39:52.907Z,25.70
2019-02-06T17:43:27.760Z,24.93
2019-02-06T17:46:49.534Z,28.90
2019-02-06T17:50:42.711Z,32.30
2019-02-06T17:53:51.886Z,29.47
2019-02-06T17:56:20.125Z,30.43
2019-02-06T17:58:47.849Z,26.90
2019-02-06T18:01:39.544Z,30.07
2019-02-06T18:04:19.548Z,27.20
2019-02-06T18:06:47.037Z,37.10
2019-02-06T18:09:16.939Z,32.67
2019-02-06T18:11:47.003Z,33.17
2019-02-06T18:14:14.924Z,29.90
2019-02-06T18:16:43.410Z,32.53
2019-02-06T18:19:11.437Z,31.70
2019-02-06T18:21:38.777Z,29.77
2019-02-06T18:24:07.210Z,30.50
2019-02-06T18:26:44.160Z,34.00
2019-02-06T18:29:11.753Z,32.13
2019-02-06T18:31:39.068Z,32.03
2019-02-06T18:34:08.358Z,34.30
2019-02-06T18:36:36.410Z,31.73
2019-02-06T18:39:12.912Z,36.73
2019-02-06T18:41:40.651Z,29.90
2019-02-06T18:44:08.802Z,30.77
2019-02-06T18:46:36.842Z,32.30
2019-02-06T18:49:05.312Z,38.97
2019-02-06T18:51:33.070Z,32.33
2019-02-06T18:54:00.830Z,31.57
2019-02-06T18:56:28.278Z,33.00
2019-02-06T18:58:55.631Z,32.93
2019-02-06T19:01:24.101Z,31.57
2019-02-06T19:03:51.675Z,34.53
2019-02-06T19:06:19.673Z,33.03
2019-02-06T19:08:47.443Z,33.00
2019-02-06T19:11:15.282Z,32.53
2019-02-06T19:13:42.790Z,35.03
2019-02-06T19:16:10.041Z,35.50
2019-02-06T19:18:37.529Z,36.23
2019-02-06T19:21:05.674Z,37.53
2019-02-06T19:23:34.216Z,37.97
2019-02-06T19:26:02.199Z,36.83
2019-02-06T19:28:29.588Z,33.90
2019-02-06T19:30:56.921Z,35.63
2019-02-06T19:33:24.635Z,36.93
2019-02-06T19:35:52.086Z,33.73
2019-02-06T19:38:19.339Z,34.53
2019-02-06T19:40:46.689Z,34.23
2019-02-06T19:43:14.496Z,37.80
2019-02-06T19:45:42.196Z,37.20
2019-02-06T19:48:16.059Z,31.40
2019-02-06T19:50:40.191Z,36.43
2019-02-06T19:53:08.338Z,40.23
2019-02-06T19:55:35.716Z,36.73
2019-02-06T19:58:04.086Z,37.57
2019-02-06T20:00:32.090Z,36.20
2019-02-06T20:02:59.562Z,36.50
2019-02-06T20:05:28.043Z,33.67
2019-02-06T20:07:55.910Z,36.23
2019-02-06T20:10:30.406Z,34.77
2019-02-06T20:12:58.451Z,33.73
2019-02-06T20:15:25.820Z,34.17
2019-02-06T20:17:53.730Z,37.73
2019-02-06T20:20:21.851Z,38.67
2019-02-06T20:22:51.489Z,40.97
2019-02-06T20:25:19.354Z,38.53
2019-02-06T20:27:48.170Z,38.90
2019-02-06T20:30:19.599Z,46.03
2019-02-06T20:32:47.614Z,41.43
2019-02-06T20:35:15.237Z,42.13
2019-02-06T20:37:42.488Z,44.60
2019-02-06T20:40:15.012Z,41.33
2019-02-06T20:42:42.836Z,44.67
2019-02-06T20:45:10.943Z,39.83
2019-02-06T20:47:38.685Z,38.73
2019-02-06T20:50:13.109Z,43.67
2019-02-06T20:52:40.863Z,40.47
2019-02-06T20:55:09.000Z,44.07
2019-02-06T20:57:36.763Z,37.33
2019-02-06T21:00:07.532Z,43.37
2019-02-06T21:02:35.042Z,36.33
2019-02-06T21:05:04.012Z,39.77
2019-02-06T21:07:31.660Z,41.73
2019-02-06T21:09:58.825Z,44.77
2019-02-06T21:12:26.554Z,41.27
2019-02-06T21:14:54.859Z,46.30
2019-02-06T21:17:22.379Z,42.40
2019-02-06T21:19:49.900Z,40.80
2019-02-06T21:22:17.612Z,43.80
2019-02-06T21:24:45.227Z,44.90
2019-02-06T21:27:12.970Z,42.63
2019-02-06T21:29:40.776Z,41.37
2019-02-06T21:32:07.989Z,41.13
2019-02-06T21:34:35.741Z,38.30
2019-02-06T21:37:03.326Z,42.47
2019-02-06T21:39:31.343Z,41.83
2019-02-06T21:41:58.705Z,45.93
2019-02-06T21:44:26.281Z,40.27
2019-02-06T21:46:54.095Z,45.50
2019-02-06T21:49:21.817Z,45.87
2019-02-06T21:51:49.477Z,46.93
2019-02-06T21:54:17.277Z,43.20
2019-02-06T21:56:44.913Z,45.70
2019-02-06T21:59:12.436Z,49.30
2019-02-06T22:01:40.061Z,41.90
2019-02-06T22:04:08.000Z,43.27
2019-02-06T22:06:35.389Z,41.50
2019-02-06T22:09:09.173Z,42.23
2019-02-06T22:11:36.642Z,47.70
2019-02-06T22:14:04.314Z,48.00
2019-02-06T22:16:31.869Z,46.57
2019-02-06T22:18:59.523Z,42.87
2019-02-06T22:21:26.904Z,45.40
2019-02-06T22:23:55.350Z,41.57
2019-02-06T22:26:23.374Z,42.80
2019-02-06T22:28:50.883Z,51.47
2019-02-06T22:31:18.236Z,45.80
2019-02-06T22:33:46.033Z,48.93
2019-02-06T22:36:13.311Z,48.20
2019-02-06T22:38:40.910Z,43.63
2019-02-06T22:41:08.663Z,47.50
2019-02-06T22:43:36.155Z,49.10
2019-02-06T22:46:04.212Z,49.50
2019-02-06T22:48:32.543Z,45.83
2019-02-06T22:51:00.195Z,43.77
2019-02-06T22:53:27.726Z,50.77
2019-02-06T22:55:54.876Z,85.87
2019-02-06T22:58:23.165Z,52.57
2019-02-06T23:01:25.082Z,43.60
2019-02-06T23:03:52.569Z,46.27
2019-02-06T23:06:21.082Z,49.80
2019-02-06T23:08:48.982Z,47.47
2019-02-06T23:11:20.672Z,46.30
2019-02-06T23:13:48.432Z,51.47
2019-02-06T23:16:16.032Z,47.77
2019-02-06T23:18:43.579Z,50.47
2019-02-06T23:21:11.042Z,51.57
2019-02-06T23:23:39.242Z,46.27
2019-02-06T23:26:07.119Z,49.27
2019-02-06T23:28:35.133Z,47.07
2019-02-06T23:31:02.665Z,49.80
2019-02-06T23:33:30.795Z,47.70
2019-02-06T23:35:58.641Z,41.03
2019-02-06T23:38:26.674Z,47.53
2019-02-06T23:40:54.400Z,48.03
2019-02-06T23:43:21.974Z,49.40
2019-02-06T23:45:49.336Z,45.87
2019-02-06T23:48:16.746Z,42.40
2019-02-06T23:50:43.972Z,47.43
2019-02-06T23:53:12.010Z,43.73
2019-02-06T23:55:40.009Z,46.87
2019-02-06T23:58:07.485Z,41.20
